createdAt,value
2022-11-25T00:01:32.456Z,93.50
2022-11-25T00:03:59.927Z,93.70
2022-11-25T00:06:29.964Z,93.60
2022-11-25T00:09:03.772Z,93.70
2022-11-25T00:11:31.304Z,93.70
2022-11-25T00:13:58.768Z,94.10
2022-11-25T00:16:26.689Z,94.10
2022-11-25T00:18:56.224Z,94.10
2022-11-25T00:21:26.367Z,94.10
2022-11-25T00:23:56.146Z,94.10
2022-11-25T00:26:24.984Z,94.00
2022-11-25T00:28:53.528Z,93.90
2022-11-25T00:31:23.753Z,93.90
2022-11-25T00:33:52.210Z,93.90
2022-11-25T00:36:31.280Z,93.80
2022-11-25T00:39:04.249Z,93.80
2022-11-25T00:41:50.235Z,93.70
2022-11-25T00:44:39.327Z,94.00
2022-11-25T00:47:11.567Z,94.00
2022-11-25T00:49:40.975Z,94.50
2022-11-25T00:52:09.269Z,94.70
2022-11-25T00:54:37.310Z,94.70
2022-11-25T00:57:04.857Z,94.80
2022-11-25T00:59:32.436Z,94.80
2022-11-25T01:02:00.120Z,94.90
2022-11-25T01:04:27.525Z,95.20
2022-11-25T01:06:56.999Z,94.80
2022-11-25T01:09:24.598Z,94.70
2022-11-25T01:11:52.203Z,94.60
2022-11-25T01:14:22.758Z,94.60
2022-11-25T01:16:51.596Z,94.50
2022-11-25T01:19:20.147Z,94.60
2022-11-25T01:21:47.541Z,94.60
2022-11-25T01:24:16.108Z,94.50
2022-11-25T01:26:45.000Z,94.50
2022-11-25T01:29:18.215Z,94.60
2022-11-25T01:31:46.732Z,94.60
2022-11-25T01:34:21.714Z,94.60
2022-11-25T01:36:49.222Z,94.80
2022-11-25T01:39:31.698Z,94.90
2022-11-25T01:42:00.072Z,95.00
2022-11-25T01:44:29.483Z,95.20
2022-11-25T01:47:18.687Z,95.30
2022-11-25T01:50:04.940Z,95.50
2022-11-25T01:52:37.906Z,95.60
2022-11-25T01:55:14.108Z,95.70
2022-11-25T01:57:47.347Z,95.90
2022-11-25T02:00:15.669Z,95.80
2022-11-25T02:02:47.923Z,95.70
2022-11-25T02:05:18.488Z,95.70
2022-11-25T02:07:49.068Z,95.80
2022-11-25T02:10:23.412Z,95.80
2022-11-25T02:12:51.806Z,95.70
2022-11-25T02:15:21.486Z,95.80
2022-11-25T02:17:49.391Z,95.70
2022-11-25T02:20:19.786Z,95.70
2022-11-25T02:22:50.342Z,95.80
2022-11-25T02:25:22.546Z,95.70
2022-11-25T02:27:58.704Z,95.70
2022-11-25T02:30:26.459Z,95.70
2022-11-25T02:32:54.506Z,95.60
2022-11-25T02:35:28.892Z,95.40
2022-11-25T02:38:10.344Z,95.60
2022-11-25T02:40:46.571Z,95.60
2022-11-25T02:43:14.819Z,95.60
2022-11-25T02:45:49.464Z,95.30
2022-11-25T02:48:17.023Z,95.50
2022-11-25T02:50:47.192Z,95.40
2022-11-25T02:53:16.278Z,95.40
2022-11-25T02:55:43.588Z,95.40
2022-11-25T02:58:11.061Z,95.40
2022-11-25T03:00:40.279Z,95.20
2022-11-25T03:03:09.957Z,95.30
2022-11-25T03:05:37.506Z,95.30
2022-11-25T03:08:06.356Z,95.30
2022-11-25T03:10:38.086Z,95.30
2022-11-25T03:13:07.024Z,95.30
2022-11-25T03:15:35.372Z,95.30
2022-11-25T03:18:03.756Z,95.30
2022-11-25T03:20:32.320Z,95.30
2022-11-25T03:23:00.094Z,95.30
2022-11-25T03:25:27.583Z,95.30
2022-11-25T03:27:56.620Z,95.40
2022-11-25T03:30:27.682Z,95.50
2022-11-25T03:32:58.756Z,95.50
2022-11-25T03:35:27.719Z,95.60
2022-11-25T03:37:55.507Z,95.70
2022-11-25T03:40:23.236Z,95.70
2022-11-25T03:42:50.932Z,95.70
2022-11-25T03:45:18.438Z,95.80
2022-11-25T03:47:47.177Z,95.90
2022-11-25T03:50:15.731Z,95.90
2022-11-25T03:52:44.948Z,96.00
2022-11-25T03:55:13.136Z,96.00
2022-11-25T03:57:42.952Z,96.10
2022-11-25T04:00:11.797Z,96.10
2022-11-25T04:02:57.606Z,96.20
2022-11-25T04:05:24.965Z,96.20
2022-11-25T04:07:57.730Z,96.30
2022-11-25T04:10:27.229Z,96.20
2022-11-25T04:12:55.718Z,96.30
2022-11-25T04:15:30.161Z,96.30
2022-11-25T04:17:59.135Z,96.30
2022-11-25T04:20:26.485Z,96.40
2022-11-25T04:23:02.983Z,96.40
2022-11-25T04:25:30.308Z,96.40
2022-11-25T04:27:59.080Z,96.40
2022-11-25T04:30:32.973Z,96.50
2022-11-25T04:33:02.128Z,96.50
2022-11-25T04:35:29.472Z,96.40
2022-11-25T04:37:57.795Z,96.40
2022-11-25T04:40:26.591Z,96.50
2022-11-25T04:43:11.490Z,96.50
2022-11-25T04:46:12.659Z,96.50
2022-11-25T04:48:32.461Z,96.60
2022-11-25T04:50:59.888Z,96.50
2022-11-25T04:53:27.831Z,96.60
2022-11-25T04:55:55.769Z,96.60
2022-11-25T04:58:41.884Z,96.60
2022-11-25T05:01:09.999Z,96.90
2022-11-25T05:03:46.576Z,96.90
2022-11-25T05:06:16.272Z,97.00
2022-11-25T05:08:43.902Z,97.10
2022-11-25T05:11:11.367Z,97.00
2022-11-25T05:13:38.771Z,97.00
2022-11-25T05:16:07.857Z,97.10
2022-11-25T05:18:36.136Z,96.90
2022-11-25T05:21:05.084Z,96.90
2022-11-25T05:23:37.065Z,96.90
2022-11-25T05:26:05.027Z,96.90
2022-11-25T05:28:38.952Z,96.90
2022-11-25T05:31:06.402Z,96.90
2022-11-25T05:33:33.917Z,96.90
2022-11-25T05:36:03.503Z,97.00
2022-11-25T05:38:41.075Z,97.10
2022-11-25T05:41:11.465Z,97.10
2022-11-25T05:43:40.856Z,97.00
2022-11-25T05:46:08.957Z,97.10
2022-11-25T05:48:39.976Z,97.10
2022-11-25T05:51:09.079Z,97.30
2022-11-25T05:53:36.829Z,97.30
2022-11-25T05:56:06.516Z,97.40
2022-11-25T05:58:59.678Z,97.40
2022-11-25T06:01:35.336Z,97.40
2022-11-25T06:04:04.342Z,97.40
2022-11-25T06:06:32.156Z,97.60
2022-11-25T06:09:00.212Z,97.60
2022-11-25T06:11:29.300Z,97.70
2022-11-25T06:13:58.116Z,97.70
2022-11-25T06:16:26.675Z,97.80
2022-11-25T06:19:06.603Z,97.80
2022-11-25T06:21:34.440Z,97.90
2022-11-25T06:24:01.875Z,98.00
2022-11-25T06:26:30.689Z,97.80
2022-11-25T06:28:58.084Z,97.90
2022-11-25T06:31:26.437Z,98.10
2022-11-25T06:34:14.080Z,98.30
2022-11-25T06:36:41.980Z,98.10
2022-11-25T06:39:09.568Z,98.00
2022-11-25T06:41:37.347Z,98.10
2022-11-25T06:44:04.889Z,98.10
2022-11-25T06:46:32.210Z,98.10
2022-11-25T06:49:00.512Z,98.10
2022-11-25T06:51:27.792Z,98.00
2022-11-25T06:53:55.171Z,98.10
2022-11-25T06:56:25.878Z,97.90
2022-11-25T06:58:54.519Z,98.10
2022-11-25T07:01:27.717Z,98.20
2022-11-25T07:03:58.749Z,98.20
2022-11-25T07:06:26.524Z,98.20
2022-11-25T07:08:53.964Z,98.20
2022-11-25T07:11:27.678Z,98.20
2022-11-25T07:13:57.778Z,98.30
2022-11-25T07:16:26.059Z,98.40
2022-11-25T07:18:53.475Z,98.40
2022-11-25T07:21:25.277Z,98.50
2022-11-25T07:23:53.214Z,98.50
2022-11-25T07:26:22.699Z,98.60
2022-11-25T07:28:52.431Z,98.70
2022-11-25T07:31:32.892Z,98.70
2022-11-25T07:34:09.879Z,98.80
2022-11-25T07:36:37.668Z,98.80
2022-11-25T07:39:09.052Z,98.80
2022-11-25T07:41:36.583Z,98.80
2022-11-25T07:44:05.893Z,98.80
2022-11-25T07:46:47.368Z,98.80
2022-11-25T07:49:17.848Z,98.80
2022-11-25T07:51:51.048Z,98.90
2022-11-25T07:54:18.452Z,98.90
2022-11-25T07:56:46.258Z,98.90
2022-11-25T07:59:16.744Z,98.70
2022-11-25T08:01:44.939Z,99.00
2022-11-25T08:04:18.303Z,99.00
2022-11-25T08:06:49.413Z,99.10
2022-11-25T08:09:20.173Z,99.20
2022-11-25T08:11:48.259Z,99.00
2022-11-25T08:14:17.480Z,99.30
2022-11-25T08:16:45.023Z,99.50
2022-11-25T08:19:15.509Z,99.50
2022-11-25T08:21:43.238Z,99.70
2022-11-25T08:24:18.152Z,99.60
2022-11-25T08:26:45.823Z,99.70
2022-11-25T08:29:16.284Z,99.70
2022-11-25T08:31:43.893Z,99.80
2022-11-25T08:34:21.461Z,99.50
2022-11-25T08:36:51.356Z,99.90
2022-11-25T08:42:08.128Z,99.90
2022-11-25T08:44:36.211Z,99.90
2022-11-25T08:47:03.849Z,99.80
2022-11-25T08:49:34.955Z,99.80
2022-11-25T08:52:07.681Z,99.60
2022-11-25T08:54:34.990Z,99.80
2022-11-25T08:57:02.430Z,99.90
2022-11-25T08:59:29.704Z,99.80
2022-11-25T09:01:57.248Z,99.90
2022-11-25T09:04:24.790Z,99.30
2022-11-25T09:06:52.232Z,99.70
2022-11-25T09:09:19.616Z,99.70
2022-11-25T09:11:47.077Z,99.50
2022-11-25T09:14:14.601Z,99.50
2022-11-25T09:16:42.154Z,99.20
2022-11-25T09:19:09.602Z,99.10
2022-11-25T09:21:37.190Z,99.30
2022-11-25T09:24:04.660Z,99.10
2022-11-25T09:26:35.796Z,98.90
2022-11-25T09:29:03.952Z,99.00
2022-11-25T09:31:31.528Z,99.00
2022-11-25T09:33:59.372Z,99.10
2022-11-25T09:36:26.785Z,99.30
2022-11-25T09:38:54.131Z,99.00
2022-11-25T09:42:07.986Z,99.10
2022-11-25T09:45:15.193Z,99.20
2022-11-25T09:48:25.279Z,99.20
2022-11-25T09:50:57.348Z,99.40
2022-11-25T09:53:48.000Z,99.00
2022-11-25T09:56:41.739Z,99.20
2022-11-25T09:59:31.923Z,98.80
2022-11-25T10:02:04.203Z,98.70
2022-11-25T10:04:40.441Z,98.80
2022-11-25T10:07:30.028Z,98.60
2022-11-25T10:10:01.427Z,98.90
2022-11-25T10:12:34.399Z,98.90
2022-11-25T10:15:12.557Z,98.90
2022-11-25T10:17:51.009Z,99.00
2022-11-25T10:20:30.554Z,99.40
2022-11-25T10:23:03.332Z,99.70
2022-11-25T10:25:39.105Z,99.60
2022-11-25T10:28:24.167Z,99.30
2022-11-25T10:30:54.186Z,99.00
2022-11-25T10:33:30.574Z,98.90
2022-11-25T10:36:06.527Z,99.00
2022-11-25T10:38:45.354Z,98.70
2022-11-25T10:41:17.173Z,98.60
2022-11-25T10:43:46.882Z,98.80
2022-11-25T10:47:13.040Z,98.50
2022-11-25T10:49:46.022Z,98.50
2022-11-25T10:52:14.343Z,98.20
2022-11-25T10:54:41.991Z,98.00
2022-11-25T10:57:20.652Z,98.10
2022-11-25T10:59:59.711Z,98.10
2022-11-25T11:02:28.212Z,97.70
2022-11-25T11:05:10.544Z,97.80
2022-11-25T11:07:43.803Z,97.50
2022-11-25T11:10:14.749Z,97.50
2022-11-25T11:13:02.992Z,97.60
2022-11-25T11:15:33.115Z,97.40
2022-11-25T11:18:20.947Z,97.70
2022-11-25T11:20:51.216Z,98.00
2022-11-25T11:23:19.140Z,97.50
2022-11-25T11:25:59.508Z,97.50
2022-11-25T11:28:39.607Z,97.40
2022-11-25T11:31:25.001Z,97.50
2022-11-25T11:34:11.810Z,97.30
2022-11-25T11:36:52.204Z,97.50
2022-11-25T11:39:25.585Z,97.20
2022-11-25T11:42:03.815Z,97.20
2022-11-25T11:45:11.547Z,97.10
2022-11-25T11:48:07.863Z,96.90
2022-11-25T11:50:47.501Z,96.70
2022-11-25T11:53:31.491Z,96.60
2022-11-25T11:59:42.514Z,96.60
2022-11-25T12:02:23.611Z,96.70
2022-11-25T12:05:09.785Z,96.80
2022-11-25T12:07:52.353Z,96.50
2022-11-25T12:10:44.518Z,96.60
2022-11-25T12:13:23.068Z,96.40
2022-11-25T12:16:21.990Z,96.40
2022-11-25T12:19:17.675Z,96.30
2022-11-25T12:22:01.625Z,96.30
2022-11-25T12:24:40.514Z,96.50
2022-11-25T12:27:34.742Z,96.60
2022-11-25T12:30:04.479Z,96.60
2022-11-25T12:32:51.214Z,96.70
2022-11-25T12:35:36.136Z,96.60
2022-11-25T12:38:25.539Z,96.70
2022-11-25T12:41:25.300Z,96.60
2022-11-25T12:44:24.968Z,96.60
2022-11-25T12:46:54.373Z,96.60
2022-11-25T12:49:30.353Z,96.60
2022-11-25T12:52:16.948Z,96.40
2022-11-25T12:55:09.456Z,96.40
2022-11-25T12:58:15.460Z,96.60
2022-11-25T13:01:23.295Z,96.70
2022-11-25T13:04:23.652Z,96.70
2022-11-25T13:07:10.481Z,96.60
2022-11-25T13:09:46.616Z,96.50
2022-11-25T13:12:27.872Z,96.60
2022-11-25T13:15:05.697Z,96.60
2022-11-25T13:17:39.489Z,96.60
2022-11-25T13:20:33.679Z,96.40
2022-11-25T13:23:10.808Z,96.30
2022-11-25T13:25:41.148Z,96.30
2022-11-25T13:28:34.423Z,96.20
2022-11-25T13:31:14.766Z,96.30
2022-11-25T13:33:45.335Z,96.40
2022-11-25T13:36:21.347Z,96.20
2022-11-25T13:38:48.962Z,96.20
2022-11-25T13:41:16.263Z,96.10
2022-11-25T13:44:02.544Z,96.00
2022-11-25T13:46:43.095Z,95.80
2022-11-25T13:49:31.276Z,95.90
2022-11-25T13:52:02.945Z,95.90
2022-11-25T13:54:48.174Z,96.00
2022-11-25T13:57:23.497Z,95.90
2022-11-25T13:59:58.145Z,95.70
2022-11-25T14:02:28.415Z,95.80
2022-11-25T14:05:10.949Z,95.70
2022-11-25T14:07:38.443Z,95.50
2022-11-25T14:10:39.468Z,95.50
2022-11-25T14:13:16.122Z,95.50
2022-11-25T14:16:14.637Z,95.20
2022-11-25T14:19:43.133Z,95.30
2022-11-25T14:22:18.819Z,95.50
2022-11-25T14:24:50.304Z,95.40
2022-11-25T14:27:25.974Z,95.40
2022-11-25T14:30:06.657Z,95.40
2022-11-25T14:32:40.362Z,95.30
2022-11-25T14:35:10.502Z,95.30
2022-11-25T14:37:45.393Z,95.40
2022-11-25T14:40:22.420Z,95.40
2022-11-25T14:42:53.913Z,95.50
2022-11-25T14:45:31.276Z,95.50
2022-11-25T14:47:58.739Z,95.50
2022-11-25T14:50:34.567Z,95.50
2022-11-25T14:53:07.621Z,95.50
2022-11-25T14:55:36.024Z,95.60
2022-11-25T14:58:03.910Z,95.40
2022-11-25T15:00:31.243Z,95.50
2022-11-25T15:03:01.368Z,95.50
2022-11-25T15:05:34.995Z,95.40
2022-11-25T15:08:10.290Z,95.50
2022-11-25T15:10:56.756Z,95.40
2022-11-25T15:13:35.679Z,95.50
2022-11-25T15:16:06.124Z,95.40
2022-11-25T15:18:35.512Z,95.30
2022-11-25T15:21:03.943Z,95.40
2022-11-25T15:23:36.924Z,95.30
2022-11-25T15:26:14.252Z,95.40
2022-11-25T15:28:41.863Z,95.40
2022-11-25T15:31:18.700Z,95.40
2022-11-25T15:33:54.405Z,95.40
2022-11-25T15:36:23.908Z,95.40
2022-11-25T15:38:51.861Z,95.40
2022-11-25T15:41:32.448Z,95.40
2022-11-25T15:44:02.492Z,95.50
2022-11-25T15:46:32.109Z,95.50
2022-11-25T15:49:03.848Z,95.60
2022-11-25T15:51:41.632Z,95.70
2022-11-25T15:54:13.078Z,95.70
2022-11-25T15:56:46.872Z,95.70
2022-11-25T15:59:47.650Z,95.70
2022-11-25T16:02:43.581Z,95.80
2022-11-25T16:05:14.197Z,95.70
2022-11-25T16:07:53.664Z,95.70
2022-11-25T16:10:22.537Z,95.90
2022-11-25T16:13:28.738Z,95.90
2022-11-25T16:15:55.955Z,96.00
2022-11-25T16:18:42.598Z,96.10
2022-11-25T16:21:19.790Z,96.20
2022-11-25T16:23:50.690Z,96.20
2022-11-25T16:26:25.353Z,96.20
2022-11-25T16:28:55.972Z,96.30
2022-11-25T16:31:24.561Z,96.30
2022-11-25T16:34:17.390Z,96.40
2022-11-25T16:36:45.363Z,96.40
2022-11-25T16:39:13.976Z,96.40
2022-11-25T16:41:42.220Z,96.40
2022-11-25T16:44:21.114Z,96.40
2022-11-25T16:46:48.501Z,96.50
2022-11-25T16:49:18.283Z,96.40
2022-11-25T16:51:45.717Z,96.50
2022-11-25T16:54:13.112Z,96.40
2022-11-25T16:56:43.168Z,96.50
2022-11-25T16:59:33.817Z,96.50
2022-11-25T17:02:01.882Z,96.50
2022-11-25T17:04:29.288Z,96.40
2022-11-25T17:07:30.518Z,96.80
2022-11-25T17:09:44.950Z,96.50
2022-11-25T17:12:18.030Z,96.60
2022-11-25T17:14:48.397Z,96.60
2022-11-25T17:17:24.384Z,97.00
2022-11-25T17:19:53.496Z,96.70
2022-11-25T17:22:23.949Z,96.60
2022-11-25T17:24:51.742Z,96.70
2022-11-25T17:27:25.475Z,96.70
2022-11-25T17:29:54.326Z,96.80
2022-11-25T17:32:22.226Z,96.70
2022-11-25T17:34:49.687Z,96.70
2022-11-25T17:37:20.354Z,96.70
2022-11-25T17:39:47.727Z,96.80
2022-11-25T17:42:21.811Z,96.70
2022-11-25T17:44:52.989Z,96.70
2022-11-25T17:47:21.740Z,96.70
2022-11-25T17:49:49.613Z,96.80
2022-11-25T17:52:17.374Z,96.70
2022-11-25T17:54:44.824Z,96.70
2022-11-25T17:57:17.076Z,96.70
2022-11-25T17:59:44.677Z,96.70
2022-11-25T18:02:22.598Z,96.70
2022-11-25T18:04:50.106Z,96.70
2022-11-25T18:07:18.439Z,96.70
2022-11-25T18:09:45.857Z,96.80
2022-11-25T18:12:24.982Z,96.80
2022-11-25T18:14:52.416Z,96.90
2022-11-25T18:17:19.933Z,96.90
2022-11-25T18:19:54.540Z,97.00
2022-11-25T18:22:24.014Z,97.10
2022-11-25T18:24:52.607Z,97.20
2022-11-25T18:27:22.341Z,97.30
2022-11-25T18:29:50.384Z,97.50
2022-11-25T18:32:17.946Z,97.60
2022-11-25T18:34:45.521Z,97.60
2022-11-25T18:37:12.996Z,97.70
2022-11-25T18:39:40.520Z,97.80
2022-11-25T18:42:19.355Z,97.90
2022-11-25T18:44:48.268Z,97.90
2022-11-25T18:47:15.643Z,98.00
2022-11-25T18:49:43.028Z,97.90
2022-11-25T18:52:10.480Z,97.80
2022-11-25T18:54:38.131Z,97.80
2022-11-25T18:57:06.099Z,97.70
2022-11-25T18:59:36.034Z,97.60
2022-11-25T19:02:03.594Z,97.50
2022-11-25T19:04:31.134Z,97.40
2022-11-25T19:06:58.482Z,97.50
2022-11-25T19:09:25.789Z,97.40
2022-11-25T19:11:55.785Z,97.40
2022-11-25T19:14:37.434Z,97.50
2022-11-25T19:17:08.684Z,97.50
2022-11-25T19:19:37.992Z,97.60
2022-11-25T19:22:15.642Z,97.50
2022-11-25T19:24:43.208Z,97.50
2022-11-25T19:27:17.943Z,97.50
2022-11-25T19:29:46.248Z,97.50
2022-11-25T19:32:21.712Z,97.50
2022-11-25T19:34:54.647Z,97.40
2022-11-25T19:37:23.135Z,97.40
2022-11-25T19:39:52.799Z,97.40
2022-11-25T19:42:20.148Z,97.40
2022-11-25T19:44:47.984Z,97.40
2022-11-25T19:47:26.637Z,97.50
2022-11-25T19:49:57.848Z,97.50
2022-11-25T19:52:34.915Z,97.70
2022-11-25T19:55:10.788Z,97.50
2022-11-25T19:57:38.228Z,97.50
2022-11-25T20:00:07.612Z,97.50
2022-11-25T20:02:36.509Z,97.60
2022-11-25T20:05:04.731Z,97.60
2022-11-25T20:07:32.648Z,97.60
2022-11-25T20:10:24.838Z,97.60
2022-11-25T20:12:53.839Z,97.60
2022-11-25T20:15:22.744Z,97.50
2022-11-25T20:17:55.173Z,97.40
2022-11-25T20:20:25.076Z,97.50
2022-11-25T20:22:59.027Z,97.50
2022-11-25T20:25:27.663Z,97.40
2022-11-25T20:27:55.839Z,97.30
2022-11-25T20:30:27.153Z,97.50
2022-11-25T20:32:55.531Z,97.40
2022-11-25T20:35:25.415Z,97.40
2022-11-25T20:37:58.103Z,97.40
2022-11-25T20:40:33.320Z,97.40
2022-11-25T20:43:01.500Z,97.40
2022-11-25T20:45:29.147Z,97.40
2022-11-25T20:47:58.984Z,97.50
2022-11-25T20:50:29.924Z,97.60
2022-11-25T20:52:58.365Z,97.50
2022-11-25T20:55:26.044Z,97.50
2022-11-25T20:57:53.377Z,97.40
2022-11-25T21:00:24.574Z,97.40
2022-11-25T21:02:53.547Z,97.30
2022-11-25T21:05:21.459Z,97.30
2022-11-25T21:07:50.531Z,97.10
2022-11-25T21:10:25.088Z,97.10
2022-11-25T21:12:53.259Z,97.40
2022-11-25T21:15:25.673Z,97.10
2022-11-25T21:17:53.288Z,97.10
2022-11-25T21:20:21.044Z,97.00
2022-11-25T21:22:52.395Z,97.00
2022-11-25T21:25:22.182Z,97.10
2022-11-25T21:27:51.937Z,97.10
2022-11-25T21:30:25.340Z,97.10
2022-11-25T21:32:57.651Z,97.10
2022-11-25T21:35:30.616Z,97.00
2022-11-25T21:38:01.783Z,97.30
2022-11-25T21:40:39.640Z,96.80
2022-11-25T21:43:21.621Z,96.70
2022-11-25T21:45:53.018Z,96.60
2022-11-25T21:48:24.237Z,96.60
2022-11-25T21:50:52.406Z,96.60
2022-11-25T21:53:20.006Z,96.70
2022-11-25T21:55:48.258Z,96.50
2022-11-25T21:58:18.680Z,96.60
2022-11-25T22:00:51.827Z,96.70
2022-11-25T22:03:20.919Z,96.80
2022-11-25T22:05:48.868Z,96.70
2022-11-25T22:08:17.141Z,96.60
2022-11-25T22:10:47.752Z,96.50
2022-11-25T22:13:27.410Z,96.50
2022-11-25T22:15:57.653Z,96.60
2022-11-25T22:18:29.852Z,96.80
2022-11-25T22:20:58.094Z,96.60
2022-11-25T22:23:25.722Z,96.70
2022-11-25T22:25:53.517Z,96.70
2022-11-25T22:28:28.439Z,96.60
2022-11-25T22:31:00.925Z,96.70
2022-11-25T22:33:34.636Z,96.30
2022-11-25T22:36:02.798Z,96.40
2022-11-25T22:38:30.766Z,96.50
2022-11-25T22:41:03.721Z,96.20
2022-11-25T22:43:37.990Z,96.50
2022-11-25T22:46:05.611Z,96.70
2022-11-25T22:48:38.136Z,96.30
2022-11-25T22:51:10.979Z,96.70
2022-11-25T22:53:38.350Z,96.80
2022-11-25T22:56:13.464Z,96.50
2022-11-25T22:58:40.783Z,96.60
2022-11-25T23:01:15.797Z,96.50
2022-11-25T23:03:43.994Z,97.20
2022-11-25T23:06:15.459Z,96.60
2022-11-25T23:08:42.988Z,96.50
2022-11-25T23:11:17.437Z,96.40
2022-11-25T23:13:44.995Z,96.30
2022-11-25T23:16:12.489Z,96.10
2022-11-25T23:18:45.327Z,96.40
2022-11-25T23:21:22.762Z,96.80
2022-11-25T23:23:50.864Z,96.90
2022-11-25T23:26:18.244Z,96.70
2022-11-25T23:28:46.019Z,96.70
2022-11-25T23:31:14.778Z,96.90
2022-11-25T23:33:48.435Z,97.00
2022-11-25T23:36:22.035Z,96.70
2022-11-25T23:38:52.373Z,96.80
2022-11-25T23:41:23.127Z,96.70
2022-11-25T23:43:50.574Z,97.10
2022-11-25T23:46:21.369Z,97.10
2022-11-25T23:49:01.943Z,97.10
2022-11-25T23:51:30.137Z,97.30
2022-11-25T23:53:58.589Z,97.20
2022-11-25T23:56:27.673Z,97.30
2022-11-25T23:58:55.175Z,97.40
